NY/NJ Local METAR Reports

 

KNYC - NYC/Central Park, NY, USA
Distance from Hoboken: NE 4mi, 7km
Updated: 07/20/2019 11:51am
Clear
Clear
 Wind from WNW
Wind: WNW 7 mph , 11 km/h
Temperature: 91°F , 33°C
Heat Index: 100°F , 38°C
Dew Point: 73°F , 23°C
Humidity: 56%
Barometer: 29.88 inHg , 1011.9 hPa
Clouds: Clear
Visibility: 10 miles , 16 km
2019/07/20 15:51 KNYC 201551Z AUTO 29006KT 10SM CLR 33/23 A2988 RMK AO2 SLP108 T03280233 $
KEWR - Newark, NJ, USA
Distance from Hoboken: WSW 8mi, 13km
Updated: 07/20/2019 11:51am
Mostly cloudy
Mostly cloudy
 Wind from W
Wind: W 7 mph , 11 km/h
Temperature: 95°F , 35°C
Heat Index: 105°F , 41°C
Dew Point: 73°F , 23°C
Humidity: 50%
Barometer: 29.85 inHg , 1010.8 hPa
Clouds: Mostly cloudy
Visibility: 10 miles , 16 km
Cloud details: Few Clouds 5000 ft
Few Clouds 11000 ft
Mostly cloudy 25000 ft
2019/07/20 15:51 KEWR 201551Z 28006KT 10SM FEW050 FEW110 BKN250 35/23 A2985 RMK AO2 SLP107 T03500233
 
KLGA - NYC/La Guardia, NY, USA
Distance from Hoboken: ENE 8mi, 13km
Updated: 07/20/2019 11:51am
Mostly cloudy
Mostly cloudy
 Wind from WSW
Wind: WSW 10 mph , 17 km/h
Temperature: 93°F , 34°C
Heat Index: 100°F , 38°C
Dew Point: 72°F , 22°C
Humidity: 49%
Barometer: 29.84 inHg , 1010.5 hPa
Clouds: Mostly cloudy
Visibility: 10 miles , 16 km
Cloud details: Few Clouds 5000 ft
Partly cloudy 20000 ft
Mostly cloudy 25000 ft
2019/07/20 15:51 KLGA 201551Z 25009KT 10SM FEW050 SCT200 BKN250 34/22 A2984 RMK AO2 SLP104 T03440222
KTEB - Teterboro, NJ, USA
Distance from Hoboken: N 9mi, 14km
Updated: 07/20/2019 11:51am
Clear
Clear
 Wind from WNW
Wind: WNW 8 mph , 13 km/h
Temperature: 93°F , 34°C
Heat Index: 103°F , 39°C
Dew Point: 73°F , 23°C
Humidity: 53%
Barometer: 29.83 inHg , 1010.2 hPa
Clouds: Clear
Visibility: 10 miles , 16 km
2019/07/20 15:51 KTEB 201551Z 30007KT 10SM CLR 34/23 A2983 RMK AO2 SLP101 T03440233
 
KJFK - NYC/Jfk Arpt, NY, USA
Distance from Hoboken: ESE 16mi, 25km
Updated: 07/20/2019 11:51am
Partly cloudy
Partly cloudy
 Wind from WSW
Wind: WSW 13 mph , 20 km/h
Temperature: 93°F , 34°C
Heat Index: 110°F , 43°C
Dew Point: 79°F , 26°C
Humidity: 63%
Barometer: 29.86 inHg , 1011.2 hPa
Clouds: Partly cloudy
Visibility: 10 miles , 16 km
Cloud details: Few Clouds 3500 ft
Partly cloudy 15000 ft
Partly cloudy 25000 ft
2019/07/20 15:51 KJFK 201551Z 24011KT 10SM FEW035 SCT150 SCT250 34/26 A2986 RMK AO2 SLP110 T03390256
KCDW - Caldwell, NJ, USA
Distance from Hoboken: NW 16mi, 26km
Updated: 07/20/2019 11:53am
Clear
Clear
 Wind from W
Wind: W 7 mph , 11 km/h
Temperature: 93°F , 34°C
Heat Index: 103°F , 39°C
Dew Point: 73°F , 23°C
Humidity: 53%
Barometer: 29.86 inHg , 1011.2 hPa
Clouds: Clear
Visibility: 10 miles , 16 km
2019/07/20 15:53 KCDW 201553Z 26006KT 10SM CLR 34/23 A2986 RMK AO2 SLP113 T03440228
 
KMMU - Morristown Muni, NJ, USA
Distance from Hoboken: W 20mi, 33km
Updated: 07/20/2019 11:45am
Mostly cloudy
Mostly cloudy
 Wind from WNW
Wind: WNW 10 mph , 17 km/h
Temperature: 91°F , 33°C
Heat Index: 104°F , 40°C
Dew Point: 77°F , 25°C
Humidity: 63%
Barometer: 29.87 inHg , 1011.5 hPa
Clouds: Mostly cloudy
Visibility: 10 miles , 16 km
Cloud details: Few Clouds 6500 ft
Mostly cloudy 25000 ft
2019/07/20 15:45 KMMU 201545Z 29009KT 10SM FEW065 BKN250 33/25 A2987
KHPN - White Plains, NY, USA
Distance from Hoboken: NE 28mi, 46km
Updated: 07/20/2019 11:56am
Clear
Clear
 Wind from W
Wind: W 7 mph , 11 km/h
Temperature: 91°F , 33°C
Heat Index: 100°F , 38°C
Dew Point: 73°F , 23°C
Humidity: 56%
Barometer: 29.86 inHg , 1011.2 hPa
Clouds: Clear
Visibility: 10 miles , 16 km
2019/07/20 15:56 KHPN 201556Z 27006KT 10SM CLR 33/23 A2986 RMK AO2 SLP101 T03330233
 
KFRG - Farmingdale, NY, USA
Distance from Hoboken: E 32mi, 52km
Updated: 07/20/2019 11:53am
Clear
Clear
 Wind from NW
Wind: NW 8 mph , 13 km/h, Gust: 16 mph , 26 km/h
Temperature: 91°F , 33°C
Heat Index: 100°F , 38°C
Dew Point: 73°F , 23°C
Humidity: 56%
Barometer: 29.85 inHg , 1010.8 hPa
Clouds: Clear
Visibility: 10 miles , 16 km
2019/07/20 15:53 KFRG 201553Z 31007G14KT 10SM CLR 33/23 A2985 RMK AO2 SLP106 T03330233
KSMQ - Somerville, NJ, USA
Distance from Hoboken: WSW 34mi, 55km
Updated: 07/20/2019 11:53am
Clear
Clear
 Wind from WNW
Wind: WNW 10 mph , 17 km/h, Gust: 17 mph , 28 km/h
Temperature: 91°F , 33°C
Heat Index: 100°F , 38°C
Dew Point: 73°F , 23°C
Humidity: 56%
Barometer: 29.85 inHg , 1010.8 hPa
Clouds: Clear
Visibility: 9 miles , 14 km
2019/07/20 15:53 KSMQ 201553Z AUTO 30009G15KT 260V350 9SM CLR 33/23 A2985 RMK AO2 SLP107 T03330228
 
KBLM - Belmar/Farmdale, NJ, USA
Distance from Hoboken: S 40mi, 64km
Updated: 07/20/2019 11:56am
Few Clouds
Few Clouds
 Wind from WSW
Wind: WSW 7 mph , 11 km/h
Temperature: 93°F , 34°C
Heat Index: 105°F , 41°C
Dew Point: 75°F , 24°C
Humidity: 56%
Barometer: 29.89 inHg , 1012.2 hPa
Clouds: Few Clouds
Visibility: 10 miles , 16 km
Cloud details: Few Clouds 5000 ft
2019/07/20 15:56 KBLM 201556Z AUTO 24006KT 10SM FEW050 34/24 A2989 RMK AO2 SLP120 T03390244
K12N - Andover, NJ, USA
Distance from Hoboken: WNW 41mi, 67km
Updated: 07/20/2019 11:54am

 Wind from varies
Wind: varies 5 mph , 7 km/h
Temperature: 90°F , 32°C
Heat Index: 99°F , 37°C
Dew Point: 73°F , 23°C
Humidity: 59%
Barometer: 29.90 inHg , 1012.5 hPa
2019/07/20 15:54 K12N 201554Z AUTO VRB04KT 32/23 A2990 RMK AO1 SLP114 T03170233
 
KFWN - Sussex, NJ, USA
Distance from Hoboken: NW 45mi, 72km
Updated: 07/20/2019 11:53am
Clear
Clear
 Wind from W
Wind: W 3 mph , 6 km/h
Temperature: 90°F , 32°C
Heat Index: 101°F , 38°C
Dew Point: 75°F , 24°C
Humidity: 63%
Barometer: 29.88 inHg , 1011.9 hPa
Clouds: Clear
Visibility: 10 miles , 16 km
2019/07/20 15:53 KFWN 201553Z AUTO 27003KT 10SM CLR 32/24 A2988 RMK AO2 SLP115 T03220244
KISP - Islip, NY, USA
Distance from Hoboken: E 49mi, 79km
Updated: 07/20/2019 11:56am
Mostly cloudy
Mostly cloudy
 Wind from W
Wind: W 10 mph , 17 km/h, Gust: 18 mph , 30 km/h
Temperature: 95°F , 35°C
Heat Index: 107°F , 42°C
Dew Point: 75°F , 24°C
Humidity: 53%
Barometer: 29.84 inHg , 1010.5 hPa
Clouds: Mostly cloudy
Visibility: 10 miles , 16 km
Cloud details: Few Clouds 5000 ft
Partly cloudy 13000 ft
Mostly cloudy 25000 ft
2019/07/20 15:56 KISP 201556Z 28009G16KT 10SM FEW050 SCT130 BKN250 35/24 A2984 RMK AO2 SLP105 T03500244